Time;durP1;ratioP1;P1;durP2;ratioP2;P2;SDS_P1;SDS_P2;PMS_P1;PMS_P2;Temp;Humidity;BMP_temperature;BMP_pressure;BME280_temperature;BME280_humidity;BME280_pressure;Samples;Min_cycle;Max_cycle;Signal;HPM_P1;HPM_P2
2022/03/04 00:00:31;;;;;;;41.10;14.00;;;;;;;-148.23;100.00;61223.13;4973500;28;20054;-66
2022/03/04 00:02:56;;;;;;;38.13;12.80;;;;;;;-148.23;100.00;61223.13;4974635;28;20034;-66
2022/03/04 00:05:22;;;;;;;42.35;15.82;;;;;;;-148.23;100.00;61223.13;4970630;28;20030;-66
2022/03/04 00:07:47;;;;;;;38.10;14.02;;;;;;;-148.23;100.00;61223.13;4971912;28;20026;-66
2022/03/04 00:10:12;;;;;;;46.78;13.88;;;;;;;-148.23;100.00;61223.13;4969018;28;20606;-66
2022/03/04 00:12:38;;;;;;;41.40;14.82;;;;;;;-148.23;100.00;61223.13;4971784;28;20034;-66
2022/03/04 00:15:04;;;;;;;40.35;14.43;;;;;;;-148.23;100.00;61223.13;4975407;28;20114;-66
2022/03/04 00:17:29;;;;;;;35.45;13.00;;;;;;;-148.23;100.00;61223.13;4973415;28;20022;-66
2022/03/04 00:19:55;;;;;;;40.15;14.25;;;;;;;-148.23;100.00;61223.13;4975620;28;20034;-67
2022/03/04 00:22:21;;;;;;;41.38;13.98;;;;;;;-148.23;100.00;61223.13;4972221;28;20034;-67
2022/03/04 00:24:46;;;;;;;42.15;14.13;;;;;;;-148.23;100.00;61223.13;4975504;28;20030;-67
2022/03/04 00:27:11;;;;;;;44.28;15.23;;;;;;;-148.23;100.00;61223.13;4954092;28;20494;-67
2022/03/04 00:29:37;;;;;;;41.97;14.77;;;;;;;-148.23;100.00;61223.13;4977416;28;20106;-67
2022/03/04 00:32:02;;;;;;;43.38;15.40;;;;;;;-148.23;100.00;61223.13;4972183;28;20773;-67
2022/03/04 00:34:28;;;;;;;42.58;15.10;;;;;;;-148.23;100.00;61223.13;4982699;28;20158;-67
2022/03/04 00:36:53;;;;;;;39.95;13.50;;;;;;;-148.23;100.00;61223.13;4982058;28;20059;-67
2022/03/04 00:39:18;;;;;;;40.72;13.23;;;;;;;-148.23;100.00;61223.13;4979775;28;20032;-67
2022/03/04 00:41:44;;;;;;;43.45;15.23;;;;;;;-148.23;100.00;61223.13;4974955;28;20184;-67
2022/03/04 00:44:10;;;;;;;41.53;14.20;;;;;;;-148.23;100.00;61223.13;4967894;28;20034;-67
2022/03/04 00:46:35;;;;;;;41.45;14.60;;;;;;;-148.23;100.00;61223.13;4958199;28;20061;-67
2022/03/04 00:49:01;;;;;;;41.10;13.82;;;;;;;-148.23;100.00;61223.13;4972728;28;20042;-67
2022/03/04 00:51:27;;;;;;;45.35;14.57;;;;;;;-148.23;100.00;61223.13;4975816;28;20149;-67
2022/03/04 00:53:52;;;;;;;38.90;14.93;;;;;;;-148.23;100.00;61223.13;4974644;28;20057;-67
2022/03/04 00:56:18;;;;;;;42.42;14.65;;;;;;;-148.23;100.00;61223.13;4969105;28;20068;-67
2022/03/04 00:58:43;;;;;;;43.88;14.48;;;;;;;-148.23;100.00;61223.13;4967832;28;20532;-67
2022/03/04 01:01:08;;;;;;;36.72;13.30;;;;;;;-148.23;100.00;61223.13;4973634;28;20130;-67
2022/03/04 01:03:34;;;;;;;42.65;15.43;;;;;;;-148.23;100.00;61223.13;4973743;28;20129;-67
2022/03/04 01:06:00;;;;;;;47.28;15.52;;;;;;;-148.23;100.00;61223.13;4979147;28;20035;-67
2022/03/04 01:08:26;;;;;;;45.28;15.32;;;;;;;-148.23;100.00;61223.13;4953743;28;20439;-67
2022/03/04 01:10:51;;;;;;;43.17;15.20;;;;;;;-148.23;100.00;61223.13;4974901;28;20034;-67
2022/03/04 01:13:17;;;;;;;40.25;14.02;;;;;;;-148.23;100.00;61223.13;4973390;28;20030;-67
2022/03/04 01:15:43;;;;;;;40.60;14.45;;;;;;;-148.23;100.00;61223.13;4972379;28;20414;-67
2022/03/04 01:18:08;;;;;;;43.95;13.85;;;;;;;-148.23;100.00;61223.13;4975774;28;20038;-67
2022/03/04 01:20:33;;;;;;;38.33;14.88;;;;;;;-148.23;100.00;61223.13;4978980;28;20061;-67
2022/03/04 01:22:59;;;;;;;45.47;14.73;;;;;;;-148.23;100.00;61223.13;4977181;28;20045;-67
2022/03/04 01:25:25;;;;;;;51.85;16.20;;;;;;;-148.23;100.00;61223.13;4979113;28;20030;-67
2022/03/04 01:27:50;;;;;;;39.22;14.93;;;;;;;-148.23;100.00;61223.13;4983911;28;20098;-67
2022/03/04 01:30:16;;;;;;;45.33;14.65;;;;;;;-148.23;100.00;61223.13;4953988;28;20034;-67
2022/03/04 01:32:42;;;;;;;46.17;17.02;;;;;;;-148.23;100.00;61223.13;4975622;28;20034;-67
2022/03/04 01:35:08;;;;;;;37.05;14.38;;;;;;;-148.23;100.00;61223.13;4976504;28;20026;-67
2022/03/04 01:37:36;;;;;;;44.25;15.20;;;;;;;-148.23;100.00;61223.13;4978302;28;20034;-67
2022/03/04 01:40:06;;;;;;;36.47;14.70;;;;;;;-148.23;100.00;61223.13;4972844;28;20487;-67
2022/03/04 01:42:32;;;;;;;39.25;13.38;;;;;;;-148.23;100.00;61223.13;4960431;28;20034;-67
2022/03/04 01:44:57;;;;;;;39.35;14.25;;;;;;;-148.23;100.00;61223.13;4979247;28;20411;-67
2022/03/04 01:47:23;;;;;;;42.95;15.75;;;;;;;-148.23;100.00;61223.13;4980242;28;20504;-67
2022/03/04 01:49:48;;;;;;;45.63;14.63;;;;;;;-148.23;100.00;61223.13;4979128;28;20074;-67
2022/03/04 01:52:14;;;;;;;47.05;15.77;;;;;;;-148.23;100.00;61223.13;4974633;28;20369;-67
2022/03/04 01:54:39;;;;;;;44.08;16.23;;;;;;;-148.23;100.00;61223.13;4978119;28;20037;-67
2022/03/04 01:57:05;;;;;;;42.65;15.02;;;;;;;-148.23;100.00;61223.13;4975451;28;20031;-67
2022/03/04 01:59:30;;;;;;;41.55;15.05;;;;;;;-148.23;100.00;61223.13;4977812;28;20404;-67
2022/03/04 02:01:56;;;;;;;45.55;15.32;;;;;;;-148.23;100.00;61223.13;4975062;28;20034;-67
2022/03/04 02:04:22;;;;;;;48.67;17.00;;;;;;;-148.23;100.00;61223.13;4976333;28;20062;-67
2022/03/04 02:06:48;;;;;;;47.85;15.70;;;;;;;-148.23;100.00;61223.13;4970984;28;20026;-67
2022/03/04 02:09:13;;;;;;;46.35;15.02;;;;;;;-148.23;100.00;61223.13;4979424;28;20034;-66
2022/03/04 02:11:41;;;;;;;45.65;15.80;;;;;;;-148.23;100.00;61223.13;4973786;28;20197;-67
2022/03/04 02:14:07;;;;;;;40.25;14.85;;;;;;;-148.23;100.00;61223.13;4972047;28;20041;-67
2022/03/04 02:16:43;;;;;;;43.88;15.10;;;;;;;-148.23;100.00;61223.13;4977921;28;20128;-67
2022/03/04 02:19:09;;;;;;;43.95;16.88;;;;;;;-148.23;100.00;61223.13;4976967;28;20346;-67
2022/03/04 02:21:35;;;;;;;42.92;14.52;;;;;;;-148.23;100.00;61223.13;4976959;28;20399;-67
2022/03/04 02:24:00;;;;;;;46.67;16.25;;;;;;;-148.23;100.00;61223.13;4980970;28;20475;-67
2022/03/04 02:26:26;;;;;;;45.97;15.88;;;;;;;-148.23;100.00;61223.13;4960286;28;20022;-67
2022/03/04 02:28:51;;;;;;;45.13;15.73;;;;;;;-148.23;100.00;61223.13;4977560;28;20034;-67
2022/03/04 02:31:18;;;;;;;49.97;17.00;;;;;;;-148.23;100.00;61223.13;4980141;28;20033;-67
2022/03/04 02:33:44;;;;;;;43.15;16.00;;;;;;;-148.23;100.00;61223.13;4965289;28;20031;-66
2022/03/04 02:36:09;;;;;;;37.25;14.43;;;;;;;-148.23;100.00;61223.13;4977531;28;20144;-67
2022/03/04 02:38:35;;;;;;;47.67;15.93;;;;;;;-148.23;100.00;61223.13;4971246;28;20510;-67
2022/03/04 02:41:00;;;;;;;45.45;14.85;;;;;;;-148.23;100.00;61223.13;4976168;28;20069;-67
2022/03/04 02:43:26;;;;;;;41.08;14.00;;;;;;;-148.23;100.00;61223.13;4952911;28;20488;-67
2022/03/04 02:45:52;;;;;;;40.88;14.68;;;;;;;-148.23;100.00;61223.13;4979973;28;20862;-67
2022/03/04 02:48:18;;;;;;;38.88;14.57;;;;;;;-148.23;100.00;61223.13;4976488;28;20030;-67
2022/03/04 02:50:43;;;;;;;43.92;15.43;;;;;;;-148.23;100.00;61223.13;4961736;28;20037;-67
2022/03/04 02:53:09;;;;;;;40.60;14.57;;;;;;;-148.23;100.00;61223.13;4977430;28;20329;-67
2022/03/04 02:55:35;;;;;;;47.00;15.82;;;;;;;-148.23;100.00;61223.13;4976233;28;20105;-67
2022/03/04 02:58:00;;;;;;;43.63;14.00;;;;;;;-148.23;100.00;61223.13;4973522;28;20030;-67
2022/03/04 03:00:25;;;;;;;46.47;16.05;;;;;;;-148.23;100.00;61223.13;4974527;28;20042;-67
2022/03/04 03:02:51;;;;;;;44.20;16.05;;;;;;;-148.23;100.00;61223.13;4978920;28;20064;-67
2022/03/04 03:05:16;;;;;;;38.30;15.05;;;;;;;-148.23;100.00;61223.13;4978324;28;20034;-67
2022/03/04 03:07:42;;;;;;;48.05;16.33;;;;;;;-148.23;100.00;61223.13;4976053;28;20034;-67
2022/03/04 03:10:08;;;;;;;38.90;15.32;;;;;;;-148.23;100.00;61223.13;4974036;28;20135;-67
2022/03/04 03:12:34;;;;;;;46.05;15.23;;;;;;;-148.23;100.00;61223.13;4969768;28;20350;-66
2022/03/04 03:14:59;;;;;;;45.35;15.48;;;;;;;-148.23;100.00;61223.13;4975063;28;20491;-67
2022/03/04 03:17:25;;;;;;;53.13;15.57;;;;;;;-148.23;100.00;61223.13;4978967;28;20551;-67
2022/03/04 03:19:50;;;;;;;46.35;15.88;;;;;;;-148.23;100.00;61223.13;4974334;28;20034;-67
2022/03/04 03:22:18;;;;;;;47.05;16.15;;;;;;;-148.23;100.00;61223.13;4975616;28;20052;-67
2022/03/04 03:24:44;;;;;;;50.85;16.67;;;;;;;-148.23;100.00;61223.13;4971479;28;20038;-67
2022/03/04 03:27:09;;;;;;;46.90;16.45;;;;;;;-148.23;100.00;61223.13;4979617;28;20133;-67
2022/03/04 03:29:35;;;;;;;48.97;16.80;;;;;;;-148.23;100.00;61223.13;4976748;28;20449;-67
2022/03/04 03:32:00;;;;;;;44.70;18.00;;;;;;;-148.23;100.00;61223.13;4976368;28;20027;-67
2022/03/04 03:34:25;;;;;;;46.33;16.13;;;;;;;-148.23;100.00;61223.13;4978150;28;20030;-67
2022/03/04 03:36:51;;;;;;;48.15;16.48;;;;;;;-148.23;100.00;61223.13;4975766;28;20034;-67
2022/03/04 03:39:16;;;;;;;47.28;16.85;;;;;;;-148.23;100.00;61223.13;4988465;28;20479;-67
2022/03/04 03:41:41;;;;;;;40.83;15.90;;;;;;;-148.23;100.00;61223.13;4980119;28;20506;-67
2022/03/04 03:44:07;;;;;;;44.33;16.75;;;;;;;-148.23;100.00;61223.13;4977308;28;20066;-67
2022/03/04 03:46:32;;;;;;;47.22;15.93;;;;;;;-148.23;100.00;61223.13;4976160;28;20035;-67
2022/03/04 03:48:58;;;;;;;43.53;16.08;;;;;;;-148.23;100.00;61223.13;4979218;28;20116;-67
2022/03/04 03:51:23;;;;;;;40.30;15.30;;;;;;;-148.23;100.00;61223.13;4983397;28;20370;-67
2022/03/04 03:53:48;;;;;;;48.15;15.55;;;;;;;-148.23;100.00;61223.13;4979098;28;20038;-67
2022/03/04 03:56:14;;;;;;;47.42;15.95;;;;;;;-148.23;100.00;61223.13;4971325;28;20061;-67
2022/03/04 03:58:39;;;;;;;47.28;16.55;;;;;;;-148.23;100.00;61223.13;4968722;28;20030;-67
2022/03/04 04:01:05;;;;;;;44.47;16.02;;;;;;;-148.23;100.00;61223.13;4971852;28;20026;-67
2022/03/04 04:03:30;;;;;;;46.38;15.27;;;;;;;-148.23;100.00;61223.13;4970748;28;20180;-67
2022/03/04 04:05:55;;;;;;;43.30;15.13;;;;;;;-148.23;100.00;61223.13;4955460;28;21815;-67
2022/03/04 04:08:21;;;;;;;45.55;15.80;;;;;;;-148.23;100.00;61223.13;4973290;28;20084;-67
2022/03/04 04:10:47;;;;;;;45.05;15.57;;;;;;;-148.23;100.00;61223.13;4970565;28;20100;-67
2022/03/04 04:13:12;;;;;;;46.20;15.57;;;;;;;-148.23;100.00;61223.13;4971794;28;20038;-67
2022/03/04 04:15:38;;;;;;;48.03;17.25;;;;;;;-148.23;100.00;61223.13;4974637;28;20139;-67
2022/03/04 04:18:03;;;;;;;45.40;15.13;;;;;;;-148.23;100.00;61223.13;4974450;28;20029;-67
2022/03/04 04:20:28;;;;;;;41.17;15.85;;;;;;;-148.23;100.00;61223.13;4973308;28;20034;-67
2022/03/04 04:22:54;;;;;;;47.10;16.48;;;;;;;-148.23;100.00;61223.13;4976761;28;20061;-67
2022/03/04 04:25:19;;;;;;;46.70;14.20;;;;;;;-148.23;100.00;61223.13;4971428;28;20072;-67
2022/03/04 04:27:44;;;;;;;46.58;17.13;;;;;;;-148.23;100.00;61223.13;4971441;28;20042;-67
2022/03/04 04:30:10;;;;;;;40.95;14.50;;;;;;;-148.23;100.00;61223.13;4970308;28;20109;-67
2022/03/04 04:32:36;;;;;;;46.17;16.60;;;;;;;-148.23;100.00;61223.13;4976623;28;20042;-67
2022/03/04 04:35:01;;;;;;;46.40;15.55;;;;;;;-148.23;100.00;61223.13;4978103;28;20034;-67
2022/03/04 04:37:26;;;;;;;48.17;15.45;;;;;;;-148.23;100.00;61223.13;4976657;28;20137;-67
2022/03/04 04:39:52;;;;;;;49.13;16.45;;;;;;;-148.23;100.00;61223.13;4974847;28;20098;-67
2022/03/04 04:42:17;;;;;;;42.95;15.05;;;;;;;-148.23;100.00;61223.13;4979760;28;20025;-67
2022/03/04 04:44:42;;;;;;;42.03;15.18;;;;;;;-148.23;100.00;61223.13;4956057;28;20037;-67
2022/03/04 04:47:07;;;;;;;44.53;16.20;;;;;;;-148.23;100.00;61223.13;4979361;28;20045;-67
2022/03/04 04:49:37;;;;;;;43.83;14.35;;;;;;;-148.23;100.00;61223.13;4975792;28;20033;-67
2022/03/04 04:52:04;;;;;;;48.95;14.98;;;;;;;-148.23;100.00;61223.13;4976380;28;20156;-67
2022/03/04 04:54:30;;;;;;;42.83;14.70;;;;;;;-148.23;100.00;61223.13;4978143;28;20684;-67
2022/03/04 04:56:56;;;;;;;45.83;15.98;;;;;;;-148.23;100.00;61223.13;4976045;28;20043;-67
2022/03/04 04:59:21;;;;;;;43.08;14.75;;;;;;;-148.23;100.00;61223.13;4979057;28;20030;-67
2022/03/04 05:01:47;;;;;;;55.55;15.38;;;;;;;-148.23;100.00;61223.13;4979486;28;20076;-67
2022/03/04 05:04:12;;;;;;;43.42;15.13;;;;;;;-148.23;100.00;61223.13;4978531;28;20076;-67
2022/03/04 05:06:37;;;;;;;44.42;15.65;;;;;;;-148.23;100.00;61223.13;4975403;28;20054;-67
2022/03/04 05:09:03;;;;;;;44.95;14.43;;;;;;;-148.23;100.00;61223.13;4976332;28;20100;-67
2022/03/04 05:11:29;;;;;;;42.97;15.00;;;;;;;-148.23;100.00;61223.13;4972146;28;20030;-67
2022/03/04 05:13:54;;;;;;;45.25;16.42;;;;;;;-148.23;100.00;61223.13;4979049;28;20112;-67
2022/03/04 05:16:19;;;;;;;48.70;16.10;;;;;;;-148.23;100.00;61223.13;4976378;28;20085;-67
2022/03/04 05:18:45;;;;;;;41.80;14.57;;;;;;;-148.23;100.00;61223.13;4973405;28;20043;-67
2022/03/04 05:21:10;;;;;;;51.22;17.45;;;;;;;-148.23;100.00;61223.13;4975879;28;20071;-68
2022/03/04 05:26:19;;;;;;;41.55;14.80;;;;;;;-148.23;100.00;61223.13;4981886;28;20135;-67
2022/03/04 05:28:45;;;;;;;44.22;16.08;;;;;;;-148.23;100.00;61223.13;4966824;28;20833;-67
2022/03/04 05:31:10;;;;;;;51.45;16.23;;;;;;;-148.23;100.00;61223.13;4974781;28;20026;-68
2022/03/04 05:33:35;;;;;;;43.22;17.27;;;;;;;-148.23;100.00;61223.13;4973294;28;20044;-67
2022/03/04 05:36:01;;;;;;;42.95;15.63;;;;;;;-148.23;100.00;61223.13;4978582;28;20022;-67
2022/03/04 05:38:26;;;;;;;51.75;16.95;;;;;;;-148.23;100.00;61223.13;4975234;28;20027;-67
2022/03/04 05:40:51;;;;;;;45.97;16.85;;;;;;;-148.23;100.00;61223.13;4975903;28;20042;-67
2022/03/04 05:43:17;;;;;;;52.40;16.23;;;;;;;-148.23;100.00;61223.13;4974793;28;20073;-67
2022/03/04 05:45:42;;;;;;;53.67;18.05;;;;;;;-148.23;100.00;61223.13;4978370;28;20034;-67
2022/03/04 05:48:07;;;;;;;49.20;16.30;;;;;;;-148.23;100.00;61223.13;4979622;28;20030;-67
2022/03/04 05:50:33;;;;;;;48.13;16.58;;;;;;;-148.23;100.00;61223.13;4981820;28;20034;-68
2022/03/04 05:52:58;;;;;;;49.38;16.98;;;;;;;-148.23;100.00;61223.13;4975066;28;20054;-67
2022/03/04 05:55:23;;;;;;;54.30;20.15;;;;;;;-148.23;100.00;61223.13;4975192;28;20077;-67
2022/03/04 05:57:49;;;;;;;48.55;18.48;;;;;;;-148.23;100.00;61223.13;4973992;28;20684;-67
2022/03/04 06:00:14;;;;;;;61.15;19.95;;;;;;;-148.23;100.00;61223.13;4970228;28;21745;-67
2022/03/04 06:02:39;;;;;;;49.03;16.63;;;;;;;-148.23;100.00;61223.13;4974126;28;20038;-67
2022/03/04 06:05:05;;;;;;;55.28;17.02;;;;;;;-148.23;100.00;61223.13;4973902;28;20062;-68
2022/03/04 06:07:33;;;;;;;53.28;18.40;;;;;;;-148.23;100.00;61223.13;4976654;28;20050;-67
2022/03/04 06:09:59;;;;;;;47.92;18.90;;;;;;;-148.23;100.00;61223.13;4977829;28;20725;-67
2022/03/04 06:12:24;;;;;;;60.63;21.52;;;;;;;-148.23;100.00;61223.13;4958518;28;20038;-67
2022/03/04 06:14:50;;;;;;;54.33;20.20;;;;;;;-148.23;100.00;61223.13;4973573;28;20038;-67
2022/03/04 06:17:16;;;;;;;58.20;20.15;;;;;;;-148.23;100.00;61223.13;4961949;28;20109;-67
2022/03/04 06:19:41;;;;;;;55.15;20.38;;;;;;;-148.23;100.00;61223.13;4956298;28;20057;-67
2022/03/04 06:22:07;;;;;;;57.90;17.95;;;;;;;-148.23;100.00;61223.13;4980984;28;20165;-67
2022/03/04 06:24:32;;;;;;;59.92;21.17;;;;;;;-148.23;100.00;61223.13;4955445;28;20141;-67
2022/03/04 06:26:57;;;;;;;64.00;19.98;;;;;;;-148.23;100.00;61223.13;4957425;28;20358;-67
2022/03/04 06:29:23;;;;;;;65.07;21.20;;;;;;;-148.23;100.00;61223.13;4961597;28;20084;-68
2022/03/04 06:31:48;;;;;;;62.35;20.45;;;;;;;-148.23;100.00;61223.13;4973127;28;20076;-66
2022/03/04 06:34:14;;;;;;;53.78;20.23;;;;;;;-148.23;100.00;61223.13;4975499;28;20036;-67
2022/03/04 06:36:39;;;;;;;61.90;19.95;;;;;;;-148.23;100.00;61223.13;4980196;28;20030;-67
2022/03/04 06:39:04;;;;;;;60.15;22.05;;;;;;;-148.23;100.00;61223.13;4975262;28;20416;-69
2022/03/04 06:41:30;;;;;;;61.10;21.75;;;;;;;-148.23;100.00;61223.13;4980422;28;20114;-68
2022/03/04 06:43:55;;;;;;;65.72;21.92;;;;;;;-148.23;100.00;61223.13;4979931;28;20065;-69
2022/03/04 06:46:20;;;;;;;64.47;19.95;;;;;;;-148.23;100.00;61223.13;4978098;28;20126;-68
2022/03/04 06:48:46;;;;;;;67.35;22.58;;;;;;;-148.23;100.00;61223.13;4978015;28;20429;-70
2022/03/04 06:51:11;;;;;;;55.58;19.48;;;;;;;-148.23;100.00;61223.13;4955865;28;20057;-68
2022/03/04 06:53:36;;;;;;;64.13;20.73;;;;;;;-148.23;100.00;61223.13;4977719;28;20105;-68
2022/03/04 06:56:02;;;;;;;61.33;20.98;;;;;;;-148.23;100.00;61223.13;4975304;28;20117;-68
2022/03/04 06:58:27;;;;;;;75.32;23.50;;;;;;;-148.23;100.00;61223.13;4979824;28;20926;-68
2022/03/04 07:00:53;;;;;;;66.88;22.52;;;;;;;-148.23;100.00;61223.13;4979021;28;20058;-68
2022/03/04 07:03:19;;;;;;;60.00;21.60;;;;;;;-148.23;100.00;61223.13;4978704;28;20066;-67
2022/03/04 07:05:45;;;;;;;70.00;22.13;;;;;;;-148.23;100.00;61223.13;4974991;28;20026;-69
2022/03/04 07:08:12;;;;;;;76.10;28.45;;;;;;;-148.23;100.00;61223.13;4979269;28;20134;-67
2022/03/04 07:10:38;;;;;;;65.60;21.65;;;;;;;-148.23;100.00;61223.13;4975680;28;20030;-67
2022/03/04 07:13:04;;;;;;;70.82;24.00;;;;;;;-148.23;100.00;61223.13;4977149;28;20034;-67
2022/03/04 07:15:30;;;;;;;69.13;24.60;;;;;;;-148.23;100.00;61223.13;4978645;28;20040;-67
2022/03/04 07:17:55;;;;;;;65.10;23.45;;;;;;;-148.23;100.00;61223.13;4962820;28;20029;-67
2022/03/04 07:20:20;;;;;;;69.65;24.15;;;;;;;-148.23;100.00;61223.13;4975988;28;22409;-67
2022/03/04 07:22:46;;;;;;;63.25;24.35;;;;;;;-148.23;100.00;61223.13;4975117;28;20119;-68
2022/03/04 07:25:13;;;;;;;50.22;20.00;;;;;;;-148.23;100.00;61223.13;4979244;28;20461;-67
2022/03/04 07:27:39;;;;;;;63.00;22.10;;;;;;;-148.23;100.00;61223.13;4977707;28;20031;-68
2022/03/04 07:30:09;;;;;;;69.38;21.90;;;;;;;-148.23;100.00;61223.13;4960402;28;20503;-68
2022/03/04 07:32:34;;;;;;;75.60;26.10;;;;;;;-148.23;100.00;61223.13;4963065;28;20023;-67
2022/03/04 07:34:59;;;;;;;65.45;22.35;;;;;;;-148.23;100.00;61223.13;4973489;28;20515;-67
2022/03/04 07:37:25;;;;;;;70.20;22.63;;;;;;;-148.23;100.00;61223.13;4978414;28;20037;-66
2022/03/04 07:39:51;;;;;;;58.05;20.23;;;;;;;-148.23;100.00;61223.13;4980511;28;20059;-67
2022/03/04 07:42:16;;;;;;;70.05;21.83;;;;;;;-148.23;100.00;61223.13;4973700;28;20487;-66
2022/03/04 07:44:41;;;;;;;74.40;27.52;;;;;;;-148.23;100.00;61223.13;4979543;28;20516;-67
2022/03/04 07:47:07;;;;;;;75.35;24.23;;;;;;;-148.23;100.00;61223.13;4972157;28;20546;-66
2022/03/04 07:49:32;;;;;;;70.45;24.67;;;;;;;-148.23;100.00;61223.13;4980032;28;20049;-66
2022/03/04 07:51:57;;;;;;;68.25;22.85;;;;;;;-148.23;100.00;61223.13;4967760;28;20041;-67
2022/03/04 07:54:23;;;;;;;78.03;24.65;;;;;;;-148.23;100.00;61223.13;4982595;28;20018;-67
2022/03/04 07:56:48;;;;;;;65.47;24.17;;;;;;;-148.23;100.00;61223.13;4977219;28;20041;-67
2022/03/04 07:59:13;;;;;;;66.22;23.08;;;;;;;-148.23;100.00;61223.13;4980828;28;20116;-67
2022/03/04 08:01:39;;;;;;;71.28;23.17;;;;;;;-148.23;100.00;61223.13;4980445;28;20038;-67
2022/03/04 08:04:05;;;;;;;77.57;25.00;;;;;;;-148.23;100.00;61223.13;4982349;28;20034;-67
2022/03/04 08:06:30;;;;;;;69.15;23.75;;;;;;;-148.23;100.00;61223.13;4979598;28;20057;-67
2022/03/04 08:08:56;;;;;;;71.60;23.65;;;;;;;-148.23;100.00;61223.13;4979430;28;20132;-67
2022/03/04 08:11:21;;;;;;;64.28;21.58;;;;;;;-148.23;100.00;61223.13;4978253;28;20081;-68
2022/03/04 08:13:46;;;;;;;74.97;25.40;;;;;;;-148.23;100.00;61223.13;4982342;28;20053;-67
2022/03/04 08:16:12;;;;;;;85.32;26.42;;;;;;;-148.23;100.00;61223.13;4981241;28;20133;-67
2022/03/04 08:18:37;;;;;;;76.72;24.85;;;;;;;-148.23;100.00;61223.13;4981043;28;20062;-67
2022/03/04 08:21:03;;;;;;;74.55;26.67;;;;;;;-148.23;100.00;61223.13;4978045;28;20065;-67
2022/03/04 08:23:29;;;;;;;78.47;24.92;;;;;;;-148.23;100.00;61223.13;4968198;28;20098;-66
2022/03/04 08:25:56;;;;;;;80.18;27.42;;;;;;;-148.23;100.00;61223.13;4979825;28;20099;-66
2022/03/04 08:28:22;;;;;;;83.53;25.25;;;;;;;-148.23;100.00;61223.13;4975216;28;20053;-67
2022/03/04 08:30:48;;;;;;;78.53;27.48;;;;;;;-148.23;100.00;61223.13;4982094;28;20500;-67
2022/03/04 08:33:13;;;;;;;73.30;25.35;;;;;;;-148.23;100.00;61223.13;4976136;28;20083;-67
2022/03/04 08:35:38;;;;;;;82.75;25.38;;;;;;;-148.23;100.00;61223.13;4962502;28;20022;-67
2022/03/04 08:38:04;;;;;;;81.13;26.25;;;;;;;-148.23;100.00;61223.13;4974755;28;20034;-66
2022/03/04 08:40:29;;;;;;;90.97;29.95;;;;;;;-148.23;100.00;61223.13;4979448;28;20217;-66
2022/03/04 08:42:55;;;;;;;83.28;26.65;;;;;;;-148.23;100.00;61223.13;4961634;28;20088;-66
2022/03/04 08:45:20;;;;;;;79.50;26.08;;;;;;;-148.23;100.00;61223.13;4982369;28;20141;-66
2022/03/04 08:47:46;;;;;;;86.32;27.48;;;;;;;-148.23;100.00;61223.13;4979916;28;20034;-66
2022/03/04 08:50:13;;;;;;;100.53;32.95;;;;;;;-148.23;100.00;61223.13;4977429;28;20149;-66
2022/03/04 08:52:39;;;;;;;88.53;27.55;;;;;;;-148.23;100.00;61223.13;4978273;28;20101;-66
2022/03/04 08:55:07;;;;;;;93.35;28.08;;;;;;;-148.23;100.00;61223.13;4984140;28;20030;-67
2022/03/04 08:57:33;;;;;;;97.72;30.98;;;;;;;-148.23;100.00;61223.13;4982219;28;20033;-67
2022/03/04 08:59:58;;;;;;;93.80;30.10;;;;;;;-148.23;100.00;61223.13;4968496;28;20491;-67
2022/03/04 09:02:23;;;;;;;95.57;28.10;;;;;;;-148.23;100.00;61223.13;4981136;28;20643;-67
2022/03/04 09:04:50;;;;;;;88.55;29.73;;;;;;;-148.23;100.00;61223.13;4981799;28;20116;-67
2022/03/04 09:07:15;;;;;;;85.18;26.75;;;;;;;-148.23;100.00;61223.13;4978305;28;20086;-67
2022/03/04 09:09:40;;;;;;;98.63;32.17;;;;;;;-148.23;100.00;61223.13;4973427;28;20113;-67
2022/03/04 09:12:07;;;;;;;88.63;26.75;;;;;;;-148.23;100.00;61223.13;4978788;28;20034;-67
2022/03/04 09:14:32;;;;;;;88.55;28.17;;;;;;;-148.23;100.00;61223.13;4978868;28;20746;-67
2022/03/04 09:16:58;;;;;;;89.68;29.05;;;;;;;-148.23;100.00;61223.13;4979178;28;20039;-67
2022/03/04 09:19:23;;;;;;;92.00;27.23;;;;;;;-148.23;100.00;61223.13;4980239;28;20542;-67
2022/03/04 09:21:48;;;;;;;100.88;30.50;;;;;;;-148.23;100.00;61223.13;4983011;28;20405;-67
2022/03/04 09:24:14;;;;;;;95.10;30.58;;;;;;;-148.23;100.00;61223.13;4976342;28;20452;-67
2022/03/04 09:26:39;;;;;;;91.35;29.55;;;;;;;-148.23;100.00;61223.13;4979187;28;20034;-67
2022/03/04 09:29:05;;;;;;;92.82;29.33;;;;;;;-148.23;100.00;61223.13;4979723;28;20035;-67
2022/03/04 09:31:30;;;;;;;98.18;30.48;;;;;;;-148.23;100.00;61223.13;4976334;28;20488;-67
2022/03/04 09:33:56;;;;;;;94.97;33.50;;;;;;;-148.23;100.00;61223.13;4977548;28;20042;-67
2022/03/04 09:36:21;;;;;;;88.05;29.23;;;;;;;-148.23;100.00;61223.13;4976346;28;20061;-67
2022/03/04 09:38:46;;;;;;;87.97;26.58;;;;;;;-148.23;100.00;61223.13;4975670;28;20030;-67
2022/03/04 09:41:12;;;;;;;88.07;30.45;;;;;;;-148.23;100.00;61223.13;4982842;28;20073;-67
2022/03/04 09:43:38;;;;;;;94.68;28.52;;;;;;;-148.23;100.00;61223.13;4976584;28;20030;-67
2022/03/04 09:46:04;;;;;;;87.68;29.48;;;;;;;-148.23;100.00;61223.13;4979794;28;20070;-67
2022/03/04 09:48:29;;;;;;;89.22;27.40;;;;;;;-148.23;100.00;61223.13;4978917;28;20113;-66
2022/03/04 09:50:55;;;;;;;85.63;29.42;;;;;;;-148.23;100.00;61223.13;4982627;28;20065;-67
2022/03/04 09:53:20;;;;;;;83.57;27.40;;;;;;;-148.23;100.00;61223.13;4981577;28;20578;-67
2022/03/04 09:55:46;;;;;;;86.78;30.23;;;;;;;-148.23;100.00;61223.13;4983313;28;20031;-67
2022/03/04 09:58:13;;;;;;;93.63;27.63;;;;;;;-148.23;100.00;61223.13;4980696;28;20046;-67
2022/03/04 10:00:40;;;;;;;94.50;31.15;;;;;;;-148.23;100.00;61223.13;4982922;28;20037;-67
2022/03/04 10:03:06;;;;;;;90.45;28.38;;;;;;;-148.23;100.00;61223.13;4981941;28;20112;-67
2022/03/04 10:05:31;;;;;;;99.90;30.10;;;;;;;-148.23;100.00;61223.13;4981914;28;20457;-66
2022/03/04 10:07:57;;;;;;;95.88;29.15;;;;;;;-148.23;100.00;61223.13;4983833;28;20129;-67
2022/03/04 10:10:22;;;;;;;89.50;29.25;;;;;;;-148.23;100.00;61223.13;4982005;28;20362;-66
2022/03/04 10:12:56;;;;;;;104.03;35.20;;;;;;;-148.23;100.00;61223.13;4982492;28;20172;-66
2022/03/04 10:15:23;;;;;;;105.25;29.20;;;;;;;-148.23;100.00;61223.13;4983545;28;20188;-66
2022/03/04 10:17:56;;;;;;;93.07;29.65;;;;;;;-148.23;100.00;61223.13;4982099;28;20126;-67
2022/03/04 10:20:31;;;;;;;101.80;35.35;;;;;;;-148.23;100.00;61223.13;4981764;28;20026;-67
2022/03/04 10:23:12;;;;;;;93.07;29.58;;;;;;;-148.23;100.00;61223.13;4981889;28;20026;-67
2022/03/04 10:25:37;;;;;;;100.93;35.00;;;;;;;-148.23;100.00;61223.13;4980960;28;20030;-67
2022/03/04 10:28:09;;;;;;;93.60;29.38;;;;;;;-148.23;100.00;61223.13;4982816;28;20088;-67
2022/03/04 10:30:35;;;;;;;108.28;35.75;;;;;;;-148.23;100.00;61223.13;4976581;28;20102;-67
2022/03/04 10:33:13;;;;;;;110.53;36.45;;;;;;;-148.23;100.00;61223.13;4980379;28;20038;-67
2022/03/04 10:35:39;;;;;;;103.72;32.08;;;;;;;-148.23;100.00;61223.13;4980001;28;20026;-66
2022/03/04 10:38:05;;;;;;;92.32;28.63;;;;;;;-148.23;100.00;61223.13;4978808;28;20263;-67
2022/03/04 10:40:31;;;;;;;97.25;30.52;;;;;;;-148.23;100.00;61223.13;4982145;28;20023;-67
2022/03/04 10:43:01;;;;;;;90.10;31.83;;;;;;;-148.23;100.00;61223.13;4979951;28;20033;-66
2022/03/04 10:45:31;;;;;;;91.07;30.92;;;;;;;-148.23;100.00;61223.13;4978720;28;20065;-67
2022/03/04 10:48:03;;;;;;;104.80;32.70;;;;;;;-148.23;100.00;61223.13;4980604;28;20057;-66
2022/03/04 10:50:34;;;;;;;113.95;34.22;;;;;;;-148.23;100.00;61223.13;4978170;28;20472;-66